Hlavní strana
METAR-TAF:

METAR-TAF

Letiště :

Koror, Babeldaob, Palau

zeměpisná šířka: 07-22N, zeměpisná délka: 134-32E, výška: 54 m

Aktuální stav počasí

Zpráva byla vytvořena před 24 minutami, v 06:50 UTC
Východní vítr 11 kt s nárazy do 19 kt
Teplota 29°C
Vlhkost vzduchu 74%
Tlak 1005 hPa
Viditelnost: 24.1 km
Polojasno ve výšce 1600 ft
Oblačno až skoro zataženo ve výšce 12000 ft
Oblačno až skoro zataženo ve výšce 30000 ft

METAR: PTRO 200650Z 08011G19KT 15SM SCT016 BKN120 BKN300 29/24 A2968

Čas: 16:14 (07:14 UTC)

Předpověď počasí

Zpráva byla vytvořena před 1 hodinou a 40 minutami, v 05:34 UTC
Předpověď platná od 20 v 06 UTC do 21 v 06 UTC
Východní vítr 11 kt
Viditelnost: 10 km
Polojasno ve výšce 1600 ft
Polojasno ve výšce 12000 ft
přeháňky v blízkosti

TAF: PTRO 200534Z 2006/2106 08011KT P6SM VCSH SCT016 SCT120

Stav a předpovědi počasí z více než 4 000 letišť (zprávy METAR a TAF).

Červené a žluté tečky na mapě představují dostupné meteorologické stanice.

Když kurzor umístíte na tečku, zobrazí se název stanice.

Pak kliknutím zobrazíte stav a předpověď počasí.

Chcete-li změnit mapu, kliknutím na zelené tlačítko se znaménkem +mapu přiblížíte, kliknutím na zelené tlačítko se znaménkem – mapu oddálíte a kliknutím na zelené šipky přejdete na sousední mapy.


METAR-TAF: